This is the latest recevied weather packets stored in our database for station/object SA7BGG-5. If no packets are shown the sender has not sent any weather packets the latest 10 day(s).
| Time | Temp. | Humidity | Pressure | Rain* | Wind** | Luminosity | Snow |
|---|---|---|---|---|---|---|---|
| 1778076301 | 13.33° C | 41% | 1016 hPa | - | - | - | - |
| 1778074504 | 13.33° C | 38% | 1016 hPa | - | - | - | - |
| 1778074204 | 13.33° C | 38% | 1016 hPa | - | - | - | - |
| 1778073303 | 13.33° C | 38% | 1016 hPa | - | - | - | - |
| 1778070305 | 13.33° C | 37% | 1016 hPa | - | - | - | - |
| 1778069704 | 13.33° C | 42% | 1016 hPa | - | - | - | - |
| 1778069104 | 13.33° C | 42% | 1016 hPa | - | - | - | - |
| 1778068803 | 13.33° C | 42% | 1016 hPa | - | - | - | - |
| 1778066101 | 13.89° C | 38% | 1016 hPa | - | - | - | - |
| 1778065505 | 13.89° C | 41% | 1016 hPa | - | - | - | - |
| 1778064004 | 13.89° C | 44% | 1016 hPa | - | - | - | - |
| 1778063703 | 13.33° C | 50% | 1016 hPa | - | - | - | - |
| 1778061902 | 12.78° C | 64% | 1016 hPa | - | - | - | - |
| 1778061301 | 12.78° C | 66% | 1016 hPa | - | - | - | - |
| 1778059805 | 12.22° C | 67% | 1016 hPa | - | - | - | - |
| 1778059505 | 12.22° C | 67% | 1016 hPa | - | - | - | - |
| 1778058904 | 12.22° C | 66% | 1016 hPa | - | - | - | - |
| 1778057703 | 12.22° C | 65% | 1016 hPa | - | - | - | - |
| 1778056802 | 11.67° C | 67% | 1016 hPa | - | - | - | - |
| 1778056502 | 11.67° C | 70% | 1016 hPa | - | - | - | - |
| 1778056201 | 11.67° C | 70% | 1016 hPa | - | - | - | - |
| 1778055901 | 10.56° C | 73% | 1016 hPa | - | - | - | - |
| 1778055601 | 10.56° C | 73% | 1016 hPa | - | - | - | - |
| 1778055300 | 10.56° C | 78% | 1016 hPa | - | - | - | - |
| 1778055000 | 10.56° C | 78% | 1016 hPa | - | - | - | - |
* Rain since midnight (hover to see other rain measurements)
** Current wind speed in m/s (hover to see current wind gust speed)